createdAt,value
2022-10-15T00:01:27.406Z,100637.19
2022-10-15T00:03:55.611Z,100628.53
2022-10-15T00:06:22.234Z,100639.53
2022-10-15T00:08:49.007Z,100637.13
2022-10-15T00:11:21.675Z,100636.41
2022-10-15T00:13:55.022Z,100638.38
2022-10-15T00:16:23.901Z,100647.53
2022-10-15T00:18:52.214Z,100649.53
2022-10-15T00:21:20.465Z,100646.97
2022-10-15T00:23:56.277Z,100640.84
2022-10-15T00:26:26.082Z,100643.00
2022-10-15T00:28:55.294Z,100644.31
2022-10-15T00:31:24.522Z,100642.75
2022-10-15T00:33:54.181Z,100647.78
2022-10-15T00:36:25.623Z,100644.66
2022-10-15T00:38:52.602Z,100648.66
2022-10-15T00:41:35.332Z,100646.41
2022-10-15T00:44:26.537Z,100650.41
2022-10-15T00:47:06.793Z,100650.56
2022-10-15T00:49:36.199Z,100655.28
2022-10-15T00:52:12.295Z,100645.59
2022-10-15T00:54:48.098Z,100657.56
2022-10-15T00:57:14.753Z,100660.28
2022-10-15T00:59:49.879Z,100656.72
2022-10-15T01:02:19.193Z,100652.16
2022-10-15T01:04:48.077Z,100650.28
2022-10-15T01:07:14.585Z,100654.16
2022-10-15T01:09:44.469Z,100648.03
2022-10-15T01:12:20.255Z,100656.44
2022-10-15T01:15:04.555Z,100653.88
2022-10-15T01:17:55.641Z,100651.31
2022-10-15T01:20:52.229Z,100655.88
2022-10-15T01:24:01.276Z,100647.06
2022-10-15T01:26:52.596Z,100631.81
2022-10-15T01:29:34.504Z,100627.97
2022-10-15T01:32:07.731Z,100625.97
2022-10-15T01:34:54.977Z,100620.25
2022-10-15T01:37:40.928Z,100615.38
2022-10-15T01:40:36.245Z,100618.66
2022-10-15T01:43:06.852Z,100612.78
2022-10-15T01:46:09.247Z,100623.19
2022-10-15T01:48:43.105Z,100615.31
2022-10-15T01:51:12.300Z,100618.56
2022-10-15T01:53:40.230Z,100619.81
2022-10-15T01:56:12.464Z,100605.81
2022-10-15T01:58:43.329Z,100608.09
2022-10-15T02:01:10.501Z,100609.34
2022-10-15T02:04:02.338Z,100601.75
2022-10-15T02:06:41.799Z,100602.31
2022-10-15T02:09:32.119Z,100607.44
2022-10-15T02:12:17.838Z,100599.16
2022-10-15T02:14:58.976Z,100605.13
2022-10-15T02:17:41.503Z,100608.69
2022-10-15T02:20:20.670Z,100601.13
2022-10-15T02:22:57.033Z,100598.25
2022-10-15T02:25:26.028Z,100593.53
2022-10-15T02:27:56.874Z,100589.81
2022-10-15T02:30:24.688Z,100587.81
2022-10-15T02:32:54.911Z,100582.94
2022-10-15T02:35:24.454Z,100588.88
2022-10-15T02:37:54.131Z,100580.44
2022-10-15T02:40:24.935Z,100588.28
2022-10-15T02:42:52.119Z,100580.72
2022-10-15T02:45:21.138Z,100577.00
2022-10-15T02:47:47.600Z,100574.97
2022-10-15T02:50:14.512Z,100571.09
2022-10-15T02:52:41.189Z,100564.53
2022-10-15T02:55:08.150Z,100572.50
2022-10-15T02:57:35.199Z,100569.63
2022-10-15T03:00:02.611Z,100572.19
2022-10-15T03:02:29.180Z,100561.34
2022-10-15T03:04:56.372Z,100553.03
2022-10-15T03:07:23.874Z,100548.47
2022-10-15T03:09:50.915Z,100550.19
2022-10-15T03:12:17.618Z,100543.75
2022-10-15T03:14:49.729Z,100547.84
2022-10-15T03:17:16.439Z,100545.13
2022-10-15T03:19:43.153Z,100546.84
2022-10-15T03:22:10.635Z,100539.88
2022-10-15T03:24:52.010Z,100544.75
2022-10-15T03:27:23.785Z,100544.91
2022-10-15T03:29:50.476Z,100541.50
2022-10-15T03:32:17.153Z,100544.38
2022-10-15T03:34:48.129Z,100537.25
2022-10-15T03:37:17.207Z,100544.69
2022-10-15T03:39:43.791Z,100541.28
2022-10-15T03:42:11.187Z,100536.00
2022-10-15T03:44:44.486Z,100538.72
2022-10-15T03:47:15.187Z,100544.16
2022-10-15T03:49:45.260Z,100536.16
2022-10-15T03:52:12.011Z,100537.19
2022-10-15T03:54:40.329Z,100536.16
2022-10-15T03:57:07.987Z,100538.88
2022-10-15T03:59:39.433Z,100536.84
2022-10-15T04:02:06.456Z,100541.28
2022-10-15T04:04:34.436Z,100538.41
2022-10-15T04:07:00.946Z,100532.81
2022-10-15T04:09:29.450Z,100530.97
2022-10-15T04:12:16.685Z,100524.38
2022-10-15T04:14:47.422Z,100518.09
2022-10-15T04:17:14.129Z,100528.09
2022-10-15T04:19:44.258Z,100521.81
2022-10-15T04:22:10.929Z,100525.38
2022-10-15T04:24:54.960Z,100527.94
2022-10-15T04:27:28.765Z,100538.47
2022-10-15T04:30:05.715Z,100532.03
2022-10-15T04:32:32.841Z,100531.88
2022-10-15T04:35:02.804Z,100543.44
2022-10-15T04:37:47.981Z,100551.41
2022-10-15T04:40:15.341Z,100549.41
2022-10-15T04:42:42.228Z,100545.66
2022-10-15T04:45:10.285Z,100536.84
2022-10-15T04:47:37.884Z,100541.09
2022-10-15T04:50:09.881Z,100546.38
2022-10-15T04:52:54.724Z,100538.75
2022-10-15T04:55:23.775Z,100538.75
2022-10-15T04:57:56.092Z,100538.59
2022-10-15T05:00:28.057Z,100538.44
2022-10-15T05:03:16.197Z,100536.59
2022-10-15T05:05:50.189Z,100529.31
2022-10-15T05:08:16.721Z,100535.41
2022-10-15T05:11:04.609Z,100543.25
2022-10-15T05:13:32.620Z,100540.38
2022-10-15T05:16:17.397Z,100532.38
2022-10-15T05:18:47.118Z,100523.13
2022-10-15T05:21:15.003Z,100533.81
2022-10-15T05:23:45.010Z,100540.09
2022-10-15T05:26:32.582Z,100538.38
2022-10-15T05:29:00.525Z,100528.38
2022-10-15T05:31:32.166Z,100548.06
2022-10-15T05:34:16.636Z,100543.34
2022-10-15T05:36:49.982Z,100542.16
2022-10-15T05:39:16.633Z,100544.88
2022-10-15T05:41:45.111Z,100545.56
2022-10-15T05:44:16.031Z,100558.13
2022-10-15T05:46:42.621Z,100551.84
2022-10-15T05:49:13.755Z,100550.84
2022-10-15T05:51:47.516Z,100554.41
2022-10-15T05:54:24.443Z,100557.97
2022-10-15T05:56:50.953Z,100557.81
2022-10-15T05:59:17.450Z,100541.38
2022-10-15T06:01:43.983Z,100553.94
2022-10-15T06:04:12.294Z,100559.34
2022-10-15T06:06:41.894Z,100553.59
2022-10-15T06:09:08.377Z,100553.59
2022-10-15T06:11:36.780Z,100548.03
2022-10-15T06:14:05.222Z,100546.84
2022-10-15T06:16:31.777Z,100541.25
2022-10-15T06:18:58.298Z,100540.09
2022-10-15T06:21:25.159Z,100542.47
2022-10-15T06:23:55.656Z,100536.88
2022-10-15T06:26:22.131Z,100535.72
2022-10-15T06:28:49.262Z,100539.13
2022-10-15T06:31:15.828Z,100538.09
2022-10-15T06:33:42.300Z,100546.25
2022-10-15T06:36:13.887Z,100546.25
2022-10-15T06:38:40.470Z,100542.69
2022-10-15T06:41:07.666Z,100546.25
2022-10-15T06:43:35.516Z,100549.81
2022-10-15T06:46:05.577Z,100556.25
2022-10-15T06:48:32.953Z,100548.97
2022-10-15T06:51:00.902Z,100552.69
2022-10-15T06:53:28.686Z,100555.09
2022-10-15T06:56:01.173Z,100555.78
2022-10-15T06:58:28.600Z,100552.06
2022-10-15T07:01:06.462Z,100544.59
2022-10-15T07:03:33.318Z,100546.13
2022-10-15T07:06:05.015Z,100544.13
2022-10-15T07:08:32.313Z,100548.38
2022-10-15T07:11:00.922Z,100551.94
2022-10-15T07:13:29.974Z,100551.94
2022-10-15T07:16:04.257Z,100545.66
2022-10-15T07:18:30.913Z,100554.50
2022-10-15T07:20:57.507Z,100552.16
2022-10-15T07:23:27.078Z,100551.84
2022-10-15T07:25:56.885Z,100563.06
2022-10-15T07:28:23.534Z,100561.91
2022-10-15T07:30:50.194Z,100565.16
2022-10-15T07:33:16.747Z,100551.25
2022-10-15T07:35:53.389Z,100547.03
2022-10-15T07:38:20.111Z,100545.69
2022-10-15T07:40:46.590Z,100552.50
2022-10-15T07:43:13.157Z,100542.16
2022-10-15T07:45:47.770Z,100545.56
2022-10-15T07:48:14.244Z,100534.38
2022-10-15T07:50:42.344Z,100530.63
2022-10-15T07:53:09.780Z,100530.47
2022-10-15T07:55:37.861Z,100524.53
2022-10-15T07:58:05.822Z,100520.47
2022-10-15T08:03:04.625Z,100516.06
2022-10-15T08:05:31.275Z,100516.41
2022-10-15T08:07:57.797Z,100521.19
2022-10-15T08:10:24.308Z,100522.53
2022-10-15T08:12:50.801Z,100527.66
2022-10-15T08:15:18.256Z,100521.03
2022-10-15T08:17:44.902Z,100520.00
2022-10-15T08:20:14.993Z,100509.88
2022-10-15T08:22:41.531Z,100514.13
2022-10-15T08:25:11.374Z,100513.97
2022-10-15T08:27:37.843Z,100513.44
2022-10-15T08:30:05.658Z,100510.19
2022-10-15T08:32:36.207Z,100503.19
2022-10-15T08:35:07.602Z,100510.34
2022-10-15T08:37:34.139Z,100504.88
2022-10-15T08:40:00.581Z,100504.53
2022-10-15T08:42:38.041Z,100495.16
2022-10-15T08:45:16.709Z,100492.25
2022-10-15T08:47:51.179Z,100482.06
2022-10-15T08:50:20.694Z,100489.53
2022-10-15T08:52:50.662Z,100491.56
2022-10-15T08:55:21.068Z,100486.25
2022-10-15T08:58:22.045Z,100479.91
2022-10-15T09:01:01.369Z,100485.31
2022-10-15T09:03:33.551Z,100475.75
2022-10-15T09:06:19.314Z,100474.56
2022-10-15T09:09:19.512Z,100468.75
2022-10-15T09:12:02.675Z,100470.94
2022-10-15T09:14:35.698Z,100459.00
2022-10-15T09:17:14.356Z,100451.69
2022-10-15T09:19:44.512Z,100455.06
2022-10-15T09:22:17.563Z,100459.69
2022-10-15T09:24:48.147Z,100458.66
2022-10-15T09:27:14.612Z,100451.69
2022-10-15T09:29:59.849Z,100450.34
2022-10-15T09:32:51.925Z,100454.09
2022-10-15T09:35:29.274Z,100448.81
2022-10-15T09:38:33.440Z,100450.03
2022-10-15T09:41:18.180Z,100451.25
2022-10-15T09:43:48.500Z,100444.44
2022-10-15T09:46:19.290Z,100440.03
2022-10-15T09:49:02.255Z,100443.59
2022-10-15T09:51:51.049Z,100434.56
2022-10-15T09:54:28.764Z,100427.44
2022-10-15T09:56:57.305Z,100429.47
2022-10-15T09:59:25.198Z,100428.63
2022-10-15T10:02:13.191Z,100427.44
2022-10-15T10:04:44.567Z,100426.41
2022-10-15T10:07:27.329Z,100426.75
2022-10-15T10:09:56.190Z,100427.59
2022-10-15T10:12:30.975Z,100426.09
2022-10-15T10:15:21.650Z,100425.25
2022-10-15T10:17:55.225Z,100423.19
2022-10-15T10:20:24.325Z,100421.50
2022-10-15T10:22:52.497Z,100421.66
2022-10-15T10:25:37.505Z,100416.75
2022-10-15T10:28:14.475Z,100411.13
2022-10-15T10:30:50.078Z,100414.69
2022-10-15T10:33:28.272Z,100413.84
2022-10-15T10:35:56.461Z,100412.81
2022-10-15T10:38:26.626Z,100412.81
2022-10-15T10:40:59.079Z,100421.00
2022-10-15T10:43:29.908Z,100412.81
2022-10-15T10:46:18.040Z,100411.78
2022-10-15T10:48:53.049Z,100407.00
2022-10-15T10:51:25.588Z,100410.41
2022-10-15T10:53:56.707Z,100409.38
2022-10-15T10:56:30.023Z,100416.53
2022-10-15T10:59:01.903Z,100413.81
2022-10-15T11:01:29.409Z,100409.88
2022-10-15T11:03:59.796Z,100417.69
2022-10-15T11:06:41.500Z,100412.91
2022-10-15T11:09:46.623Z,100412.06
2022-10-15T11:12:51.469Z,100397.41
2022-10-15T11:15:48.154Z,100395.34
2022-10-15T11:18:27.013Z,100404.00
2022-10-15T11:21:08.523Z,100397.34
2022-10-15T11:24:02.463Z,100395.28
2022-10-15T11:27:09.582Z,100394.94
2022-10-15T11:30:11.038Z,100391.88
2022-10-15T11:33:06.127Z,100389.81
2022-10-15T11:35:53.337Z,100386.91
2022-10-15T11:38:35.511Z,100385.50
2022-10-15T11:41:10.551Z,100390.78
2022-10-15T11:47:00.931Z,100390.22
2022-10-15T11:50:05.680Z,100398.03
2022-10-15T11:52:45.694Z,100380.47
2022-10-15T11:55:45.690Z,100386.41
2022-10-15T11:58:20.439Z,100377.84
2022-10-15T12:00:51.866Z,100378.19
2022-10-15T12:03:24.208Z,100371.31
2022-10-15T12:05:59.849Z,100376.22
2022-10-15T12:08:39.280Z,100367.84
2022-10-15T12:11:21.115Z,100369.19
2022-10-15T12:14:13.641Z,100369.28
2022-10-15T12:17:12.482Z,100365.81
2022-10-15T12:19:48.617Z,100364.13
2022-10-15T12:22:34.474Z,100367.69
2022-10-15T12:25:02.062Z,100365.44
2022-10-15T12:27:35.897Z,100371.38
2022-10-15T12:30:02.515Z,100363.84
2022-10-15T12:32:50.852Z,100365.00
2022-10-15T12:35:19.025Z,100363.88
2022-10-15T12:37:49.817Z,100360.41
2022-10-15T12:40:22.513Z,100367.00
2022-10-15T12:43:17.409Z,100358.22
2022-10-15T12:45:57.002Z,100361.91
2022-10-15T12:48:37.179Z,100372.25
2022-10-15T12:51:22.132Z,100366.44
2022-10-15T12:53:58.485Z,100362.31
2022-10-15T12:56:36.138Z,100363.63
2022-10-15T12:59:02.674Z,100365.59
2022-10-15T13:01:42.254Z,100366.03
2022-10-15T13:04:13.118Z,100358.97
2022-10-15T13:06:40.219Z,100365.56
2022-10-15T13:09:24.373Z,100357.66
2022-10-15T13:11:52.943Z,100362.53
2022-10-15T13:14:39.444Z,100363.66
2022-10-15T13:17:15.348Z,100367.91
2022-10-15T13:19:48.404Z,100358.47
2022-10-15T13:22:27.279Z,100366.28
2022-10-15T13:24:57.406Z,100367.41
2022-10-15T13:27:32.140Z,100363.03
2022-10-15T13:30:00.260Z,100364.34
2022-10-15T13:32:31.041Z,100366.50
2022-10-15T13:35:00.616Z,100356.22
2022-10-15T13:37:32.538Z,100372.22
2022-10-15T13:40:01.814Z,100367.25
2022-10-15T13:42:33.191Z,100371.47
2022-10-15T13:45:15.385Z,100368.75
2022-10-15T13:47:46.968Z,100358.44
2022-10-15T13:50:35.082Z,100357.41
2022-10-15T13:53:12.153Z,100371.53
2022-10-15T13:55:43.961Z,100365.03
2022-10-15T13:58:16.241Z,100367.75
2022-10-15T14:00:43.105Z,100377.66
2022-10-15T14:03:16.000Z,100380.19
2022-10-15T14:05:44.767Z,100385.47
2022-10-15T14:08:19.001Z,100388.88
2022-10-15T14:10:46.251Z,100396.88
2022-10-15T14:13:13.215Z,100407.81
2022-10-15T14:15:45.377Z,100417.25
2022-10-15T14:18:15.310Z,100424.34
2022-10-15T14:20:46.937Z,100431.00
2022-10-15T14:23:22.343Z,100431.72
2022-10-15T14:26:04.086Z,100440.31
2022-10-15T14:28:33.969Z,100440.91
2022-10-15T14:31:02.565Z,100440.63
2022-10-15T14:33:32.839Z,100438.66
2022-10-15T14:36:04.546Z,100450.34
2022-10-15T14:38:31.782Z,100454.31
2022-10-15T14:41:07.704Z,100454.22
2022-10-15T14:43:37.599Z,100470.34
2022-10-15T14:46:11.659Z,100466.28
2022-10-15T14:48:40.604Z,100467.69
2022-10-15T14:51:14.829Z,100471.84
2022-10-15T14:53:46.881Z,100473.63
2022-10-15T14:56:28.301Z,100482.56
2022-10-15T14:58:57.384Z,100485.69
2022-10-15T15:01:24.785Z,100483.69
2022-10-15T15:04:32.431Z,100491.94
2022-10-15T15:06:59.001Z,100495.91
2022-10-15T15:09:25.556Z,100491.00
2022-10-15T15:11:52.081Z,100492.22
2022-10-15T15:14:25.158Z,100494.66
2022-10-15T15:16:52.074Z,100489.19
2022-10-15T15:19:18.550Z,100486.66
2022-10-15T15:21:45.479Z,100487.88
2022-10-15T15:24:13.057Z,100489.09
2022-10-15T15:26:39.564Z,100500.38
2022-10-15T15:29:13.913Z,100508.94
2022-10-15T15:31:40.683Z,100514.94
2022-10-15T15:34:09.267Z,100511.69
2022-10-15T15:36:35.813Z,100518.75
2022-10-15T15:39:02.291Z,100525.41
2022-10-15T15:41:28.910Z,100524.94
2022-10-15T15:43:56.929Z,100533.47
2022-10-15T15:46:23.452Z,100533.66
2022-10-15T15:48:49.964Z,100540.16
2022-10-15T15:51:22.152Z,100550.56
2022-10-15T15:53:56.333Z,100548.03
2022-10-15T15:56:22.903Z,100543.97
2022-10-15T15:58:50.473Z,100543.66
2022-10-15T16:01:18.653Z,100548.13
2022-10-15T16:03:45.517Z,100553.25
2022-10-15T16:06:13.249Z,100550.88
2022-10-15T16:08:39.738Z,100560.44
2022-10-15T16:11:06.947Z,100556.03
2022-10-15T16:13:34.023Z,100559.09
2022-10-15T16:16:00.488Z,100561.53
2022-10-15T16:18:27.016Z,100562.06
2022-10-15T16:20:53.649Z,100557.97
2022-10-15T16:23:20.170Z,100555.78
2022-10-15T16:25:46.707Z,100558.34
2022-10-15T16:28:13.240Z,100553.78
2022-10-15T16:30:39.701Z,100570.00
2022-10-15T16:35:38.381Z,100578.72
2022-10-15T16:38:04.835Z,100575.00
2022-10-15T16:40:31.425Z,100580.28
2022-10-15T16:42:58.107Z,100578.56
2022-10-15T16:45:24.845Z,100582.16
2022-10-15T16:47:54.447Z,100584.72
2022-10-15T16:50:20.983Z,100591.84
2022-10-15T16:52:47.456Z,100599.00
2022-10-15T16:55:16.603Z,100597.81
2022-10-15T16:57:43.888Z,100603.78
2022-10-15T17:00:11.019Z,100609.56
2022-10-15T17:02:37.954Z,100618.22
2022-10-15T17:05:04.823Z,100614.31
2022-10-15T17:07:31.288Z,100628.44
2022-10-15T17:09:57.739Z,100624.50
2022-10-15T17:12:24.437Z,100631.47
2022-10-15T17:14:51.705Z,100643.88
2022-10-15T17:17:18.433Z,100636.22
2022-10-15T17:19:44.927Z,100641.31
2022-10-15T17:22:11.419Z,100644.53
2022-10-15T17:24:42.418Z,100656.84
2022-10-15T17:27:08.937Z,100668.03
2022-10-15T17:29:35.421Z,100664.75
2022-10-15T17:32:03.460Z,100662.34
2022-10-15T17:34:31.842Z,100659.56
2022-10-15T17:36:58.344Z,100669.06
2022-10-15T17:39:27.056Z,100670.25
2022-10-15T17:41:53.674Z,100669.72
2022-10-15T17:44:21.779Z,100673.78
2022-10-15T17:49:18.586Z,100689.00
2022-10-15T17:51:45.877Z,100696.78
2022-10-15T17:54:13.784Z,100718.16
2022-10-15T17:56:40.700Z,100708.75
2022-10-15T17:59:10.540Z,100701.22
2022-10-15T18:01:57.258Z,100705.28
2022-10-15T18:04:29.403Z,100702.72
2022-10-15T18:06:56.017Z,100710.88
2022-10-15T18:09:26.847Z,100706.28
2022-10-15T18:11:58.620Z,100716.13
2022-10-15T18:14:34.855Z,100726.84
2022-10-15T18:17:01.607Z,100721.56
2022-10-15T18:19:28.862Z,100720.72
2022-10-15T18:21:56.080Z,100723.72
2022-10-15T18:24:25.457Z,100734.03
2022-10-15T18:26:52.779Z,100738.63
2022-10-15T18:29:19.862Z,100736.91
2022-10-15T18:31:53.387Z,100743.19
2022-10-15T18:34:26.995Z,100744.22
2022-10-15T18:36:53.512Z,100740.81
2022-10-15T18:39:23.047Z,100741.97
2022-10-15T18:41:49.503Z,100729.72
2022-10-15T18:44:20.741Z,100735.47
2022-10-15T18:46:47.501Z,100742.06
2022-10-15T18:49:16.745Z,100745.94
2022-10-15T18:51:45.995Z,100743.38
2022-10-15T18:54:16.652Z,100739.97
2022-10-15T18:56:43.408Z,100743.84
2022-10-15T18:59:09.965Z,100738.56
2022-10-15T19:01:41.954Z,100748.72
2022-10-15T19:04:15.369Z,100751.44
2022-10-15T19:06:45.151Z,100747.72
2022-10-15T19:09:14.889Z,100757.56
2022-10-15T19:11:43.754Z,100763.00
2022-10-15T19:14:12.914Z,100769.13
2022-10-15T19:16:39.465Z,100762.84
2022-10-15T19:19:12.517Z,100759.28
2022-10-15T19:21:39.229Z,100760.13
2022-10-15T19:24:07.727Z,100764.69
2022-10-15T19:26:34.671Z,100763.84
2022-10-15T19:29:01.708Z,100754.84
2022-10-15T19:31:30.957Z,100763.84
2022-10-15T19:34:01.990Z,100763.00
2022-10-15T19:37:00.352Z,100761.44
2022-10-15T19:39:28.585Z,100771.13
2022-10-15T19:41:55.237Z,100765.88
2022-10-15T19:44:26.054Z,100772.31
2022-10-15T19:46:53.492Z,100770.59
2022-10-15T19:49:20.296Z,100768.03
2022-10-15T19:51:48.377Z,100772.59
2022-10-15T19:54:19.306Z,100772.44
2022-10-15T19:56:45.810Z,100773.00
2022-10-15T19:59:13.049Z,100771.69
2022-10-15T20:01:39.598Z,100781.22
2022-10-15T20:04:07.273Z,100788.59
2022-10-15T20:06:35.836Z,100789.13
2022-10-15T20:09:02.904Z,100792.25
2022-10-15T20:11:29.701Z,100794.50
2022-10-15T20:14:01.285Z,100799.47
2022-10-15T20:16:32.450Z,100795.59
2022-10-15T20:19:01.618Z,100794.44
2022-10-15T20:21:28.159Z,100795.13
2022-10-15T20:23:58.206Z,100795.66
2022-10-15T20:26:24.729Z,100802.66
2022-10-15T20:28:51.370Z,100804.22
2022-10-15T20:31:28.015Z,100805.94
2022-10-15T20:34:00.701Z,100804.94
2022-10-15T20:36:27.429Z,100801.91
2022-10-15T20:38:55.562Z,100806.47
2022-10-15T20:41:22.018Z,100807.19
2022-10-15T20:44:01.447Z,100818.03
2022-10-15T20:46:33.068Z,100813.63
2022-10-15T20:49:08.501Z,100811.59
2022-10-15T20:51:45.560Z,100812.28
2022-10-15T20:54:19.001Z,100816.72
2022-10-15T20:56:45.961Z,100820.28
2022-10-15T20:59:13.014Z,100812.28
2022-10-15T21:01:40.450Z,100821.63
2022-10-15T21:04:11.094Z,100829.06
2022-10-15T21:06:37.558Z,100829.22
2022-10-15T21:09:04.192Z,100830.09
2022-10-15T21:11:31.082Z,100840.94
2022-10-15T21:14:01.937Z,100842.13
2022-10-15T21:16:28.772Z,100844.69
2022-10-15T21:18:55.589Z,100849.41
2022-10-15T21:21:22.105Z,100851.28
2022-10-15T21:23:48.897Z,100860.41
2022-10-15T21:26:19.504Z,100862.41
2022-10-15T21:28:46.434Z,100860.72
2022-10-15T21:31:16.099Z,100862.72
2022-10-15T21:33:43.122Z,100866.47
2022-10-15T21:36:24.916Z,100866.75
2022-10-15T21:38:54.172Z,100879.81
2022-10-15T21:41:25.114Z,100880.97
2022-10-15T21:43:55.668Z,100872.09
2022-10-15T21:46:22.612Z,100877.66
2022-10-15T21:48:49.544Z,100873.56
2022-10-15T21:51:19.289Z,100875.56
2022-10-15T21:53:46.811Z,100874.88
2022-10-15T21:56:14.832Z,100883.16
2022-10-15T21:58:42.935Z,100893.03
2022-10-15T22:01:32.810Z,100884.03
2022-10-15T22:04:06.550Z,100892.03
2022-10-15T22:06:33.714Z,100887.44
2022-10-15T22:09:01.161Z,100890.31
2022-10-15T22:11:30.186Z,100883.16
2022-10-15T22:14:13.429Z,100884.19
2022-10-15T22:16:40.908Z,100885.03
2022-10-15T22:19:11.145Z,100879.91
2022-10-15T22:21:38.950Z,100876.50
2022-10-15T22:24:17.222Z,100875.78
2022-10-15T22:26:51.877Z,100876.94
2022-10-15T22:29:24.083Z,100879.81
2022-10-15T22:31:51.678Z,100882.53
2022-10-15T22:34:23.476Z,100883.53
2022-10-15T22:36:50.192Z,100885.00
2022-10-15T22:39:18.545Z,100888.88
2022-10-15T22:41:46.517Z,100882.75
2022-10-15T22:44:20.321Z,100892.03
2022-10-15T22:46:49.141Z,100893.19
2022-10-15T22:49:18.447Z,100883.34
2022-10-15T22:51:45.478Z,100883.50
2022-10-15T22:54:14.118Z,100890.09
2022-10-15T22:56:40.705Z,100889.94
2022-10-15T22:59:07.449Z,100888.94
2022-10-15T23:01:35.412Z,100892.78
2022-10-15T23:04:07.644Z,100891.94
2022-10-15T23:06:36.760Z,100898.94
2022-10-15T23:09:05.408Z,100898.94
2022-10-15T23:11:38.130Z,100898.38
2022-10-15T23:14:11.177Z,100898.53
2022-10-15T23:16:43.900Z,100894.97
2022-10-15T23:19:18.636Z,100900.22
2022-10-15T23:21:47.018Z,100897.53
2022-10-15T23:24:38.293Z,100903.25
2022-10-15T23:27:04.748Z,100905.97
2022-10-15T23:29:31.214Z,100906.97
2022-10-15T23:31:57.729Z,100902.69
2022-10-15T23:34:28.715Z,100911.69
2022-10-15T23:36:55.278Z,100915.97
2022-10-15T23:39:25.008Z,100914.97
2022-10-15T23:41:52.207Z,100911.41
2022-10-15T23:44:19.207Z,100912.53
2022-10-15T23:46:46.230Z,100916.25
2022-10-15T23:49:13.563Z,100912.00
2022-10-15T23:51:40.984Z,100915.72
2022-10-15T23:54:18.317Z,100908.53
2022-10-15T23:56:46.332Z,100906.56
2022-10-15T23:59:12.902Z,100902.41
